Time;durP1;ratioP1;P1;durP2;ratioP2;P2;SDS_P1;SDS_P2;PMS_P1;PMS_P2;Temp;Humidity;BMP_temperature;BMP_pressure;BME280_temperature;BME280_humidity;BME280_pressure;Samples;Min_cycle;Max_cycle;Signal;HPM_P1;HPM_P2
2020/12/04 00:00:34;;;;;;;25.88;14.38;;;;;;;1.06;88.75;98473.59;5223433;28;20123;-78
2020/12/04 00:03:05;;;;;;;26.70;14.20;;;;;;;1.00;88.47;98463.53;5223533;28;20075;-78
2020/12/04 00:05:35;;;;;;;28.33;14.75;;;;;;;1.06;89.12;98470.22;5223922;28;20040;-78
2020/12/04 00:08:05;;;;;;;26.70;14.57;;;;;;;0.95;89.78;98464.56;5223701;28;20025;-78
2020/12/04 00:10:35;;;;;;;28.42;15.20;;;;;;;0.98;89.72;98474.72;5222048;28;20025;-79
2020/12/04 00:13:06;;;;;;;26.40;15.15;;;;;;;0.95;90.17;98474.84;5223195;28;20021;-79
2020/12/04 00:15:36;;;;;;;29.73;15.68;;;;;;;0.90;89.95;98472.41;5224359;28;20025;-78
2020/12/04 00:18:06;;;;;;;26.42;14.00;;;;;;;0.83;90.60;98464.91;5223308;28;20244;-78
2020/12/04 00:20:36;;;;;;;28.23;15.75;;;;;;;0.75;90.39;98454.88;5223963;28;20413;-78
2020/12/04 00:23:07;;;;;;;29.13;15.60;;;;;;;0.78;90.36;98459.94;5222758;28;20071;-78
2020/12/04 00:25:37;;;;;;;29.90;15.27;;;;;;;0.83;90.15;98445.22;5222845;28;20407;-79
2020/12/04 00:28:07;;;;;;;30.55;14.60;;;;;;;0.84;90.62;98449.47;5224032;28;20398;-78
2020/12/04 00:30:38;;;;;;;31.80;16.27;;;;;;;0.80;90.25;98435.03;5222223;28;20060;-78
2020/12/04 00:33:08;;;;;;;29.67;16.33;;;;;;;0.76;91.13;98433.44;5223908;28;20017;-79
2020/12/04 00:35:38;;;;;;;30.45;16.25;;;;;;;0.77;90.80;98440.28;5222089;28;20032;-78
2020/12/04 00:38:09;;;;;;;30.10;16.02;;;;;;;0.72;90.69;98437.00;5223971;28;20028;-78
2020/12/04 00:40:39;;;;;;;30.58;16.38;;;;;;;0.74;90.82;98435.22;5222165;28;20522;-78
2020/12/04 00:43:09;;;;;;;31.30;15.88;;;;;;;0.75;90.73;98447.16;5222125;28;20040;-78
2020/12/04 00:45:39;;;;;;;30.02;15.80;;;;;;;0.84;90.79;98441.75;5223873;28;20032;-78
2020/12/04 00:48:10;;;;;;;28.45;16.33;;;;;;;0.78;91.18;98441.97;5224296;28;20467;-78
2020/12/04 00:50:40;;;;;;;30.58;15.98;;;;;;;0.76;90.95;98438.56;5215398;28;20037;-78
2020/12/04 00:53:10;;;;;;;31.08;14.45;;;;;;;0.81;90.69;98428.16;5218143;28;20441;-78
2020/12/04 00:55:40;;;;;;;30.45;15.32;;;;;;;0.84;90.56;98417.78;5214603;28;20021;-78
2020/12/04 00:58:11;;;;;;;33.90;16.90;;;;;;;0.91;91.34;98432.94;5214341;28;20028;-78
2020/12/04 01:00:42;;;;;;;29.40;15.70;;;;;;;0.91;91.00;98434.69;5209973;28;20017;-78
2020/12/04 01:03:12;;;;;;;32.83;16.45;;;;;;;0.96;91.04;98435.38;5213717;28;20280;-79
2020/12/04 01:05:42;;;;;;;33.72;17.13;;;;;;;0.95;90.61;98424.28;5212745;28;20076;-78
2020/12/04 01:08:12;;;;;;;30.50;15.38;;;;;;;0.96;91.58;98419.97;5220964;28;20021;-78
2020/12/04 01:10:43;;;;;;;35.78;17.35;;;;;;;0.89;90.41;98418.50;5227686;28;20094;-78
2020/12/04 01:13:14;;;;;;;32.58;17.27;;;;;;;0.94;90.87;98420.03;5226185;28;20474;-79
2020/12/04 01:15:44;;;;;;;33.40;17.58;;;;;;;0.98;91.14;98419.03;5227833;28;20074;-78
2020/12/04 01:18:15;;;;;;;33.58;17.40;;;;;;;0.94;90.74;98417.47;5225510;28;20078;-79
2020/12/04 01:20:45;;;;;;;37.42;16.52;;;;;;;0.95;90.84;98419.13;5227463;28;20090;-79
2020/12/04 01:23:15;;;;;;;34.63;16.73;;;;;;;1.03;90.38;98414.56;5216911;28;20029;-79
2020/12/04 01:25:45;;;;;;;32.85;16.35;;;;;;;1.02;90.49;98410.31;5214814;28;20070;-79
2020/12/04 01:28:16;;;;;;;34.05;17.55;;;;;;;0.98;90.29;98411.31;5217324;28;20479;-78
2020/12/04 01:30:46;;;;;;;33.45;17.42;;;;;;;0.97;90.48;98401.94;5219296;28;20021;-79
2020/12/04 01:33:16;;;;;;;32.53;17.33;;;;;;;1.03;90.46;98390.59;5218654;28;20053;-78
2020/12/04 01:35:47;;;;;;;30.90;16.15;;;;;;;1.03;90.14;98382.91;5214785;28;20032;-78
2020/12/04 01:38:17;;;;;;;35.28;17.45;;;;;;;1.01;90.62;98382.06;5225356;28;20170;-78
2020/12/04 01:40:47;;;;;;;34.65;17.58;;;;;;;1.04;91.57;98377.69;5225556;28;20036;-78
2020/12/04 01:43:18;;;;;;;36.60;18.40;;;;;;;1.11;91.64;98373.19;5225357;28;20475;-78
2020/12/04 01:45:48;;;;;;;32.30;16.63;;;;;;;1.01;91.26;98372.66;5226982;28;20025;-78
2020/12/04 01:48:18;;;;;;;36.00;17.75;;;;;;;1.01;91.22;98367.50;5227359;28;20017;-78
2020/12/04 01:50:50;;;;;;;36.20;18.33;;;;;;;1.03;91.29;98358.00;5224470;28;20086;-79
2020/12/04 01:53:22;;;;;;;37.90;18.50;;;;;;;1.03;91.32;98370.88;5225805;28;20021;-78
2020/12/04 01:55:52;;;;;;;39.40;19.48;;;;;;;1.02;91.98;98360.63;5226234;28;20029;-78
2020/12/04 01:58:23;;;;;;;36.13;18.02;;;;;;;1.07;91.86;98351.88;5227750;28;20086;-78
2020/12/04 02:00:53;;;;;;;34.22;18.77;;;;;;;1.07;91.50;98351.88;5225313;28;20112;-78
2020/12/04 02:03:23;;;;;;;34.80;18.02;;;;;;;1.04;91.56;98357.13;5231132;28;20071;-78
2020/12/04 02:06:05;;;;;;;36.90;18.27;;;;;;;1.10;91.87;98351.75;5233037;28;20025;-78
2020/12/04 02:08:40;;;;;;;37.40;18.15;;;;;;;1.14;91.22;98335.38;5233353;28;20047;-78
2020/12/04 02:11:18;;;;;;;31.52;16.52;;;;;;;1.19;90.66;98356.59;5233869;28;20021;-78
2020/12/04 02:13:50;;;;;;;34.15;16.52;;;;;;;1.26;90.68;98337.50;5233345;28;20029;-78
2020/12/04 02:16:22;;;;;;;33.08;16.83;;;;;;;1.30;90.58;98333.94;5233514;28;20016;-78
2020/12/04 02:18:52;;;;;;;34.85;17.42;;;;;;;1.33;90.91;98322.69;5230038;28;20132;-77
2020/12/04 02:21:23;;;;;;;29.40;14.77;;;;;;;1.43;89.69;98324.88;5228277;28;20040;-78
2020/12/04 02:23:53;;;;;;;29.98;15.85;;;;;;;1.51;89.23;98310.03;5232700;28;20043;-78
2020/12/04 02:26:27;;;;;;;30.58;16.25;;;;;;;1.50;89.71;98310.06;5226419;28;20060;-78
2020/12/04 02:28:57;;;;;;;31.40;15.18;;;;;;;1.58;89.35;98308.91;5231252;28;20591;-78
2020/12/04 02:31:28;;;;;;;29.13;15.02;;;;;;;1.57;89.46;98311.53;5228906;28;20021;-78
2020/12/04 02:33:58;;;;;;;27.80;14.63;;;;;;;1.68;88.37;98307.69;5224848;28;20577;-78
2020/12/04 02:36:28;;;;;;;26.88;13.55;;;;;;;1.72;87.69;98308.41;5224719;28;20044;-77
2020/12/04 02:38:58;;;;;;;29.98;14.88;;;;;;;1.74;88.00;98307.44;5225533;28;20450;-78
2020/12/04 02:41:29;;;;;;;28.25;15.27;;;;;;;1.78;88.07;98306.44;5225821;28;20048;-78
2020/12/04 02:44:00;;;;;;;31.95;15.27;;;;;;;1.76;88.78;98303.06;5225772;28;20056;-78
2020/12/04 02:46:31;;;;;;;29.98;15.73;;;;;;;1.73;88.90;98295.47;5223277;28;20400;-78
2020/12/04 02:49:01;;;;;;;29.23;15.63;;;;;;;1.67;88.34;98294.84;5224631;28;20029;-78
2020/12/04 02:51:31;;;;;;;30.50;15.48;;;;;;;1.65;88.76;98289.78;5224278;28;20047;-79
2020/12/04 02:54:01;;;;;;;32.95;16.55;;;;;;;1.65;89.66;98278.63;5224729;28;20036;-78
2020/12/04 02:56:32;;;;;;;29.55;15.88;;;;;;;1.57;89.18;98266.06;5225066;28;20032;-78
2020/12/04 02:59:02;;;;;;;29.85;16.20;;;;;;;1.64;89.78;98266.66;5224370;28;20112;-78
2020/12/04 03:01:33;;;;;;;33.80;16.30;;;;;;;1.59;89.69;98266.00;5223368;28;20044;-78
2020/12/04 03:04:03;;;;;;;30.08;16.05;;;;;;;1.57;90.34;98260.91;5222477;28;20451;-78
2020/12/04 03:06:34;;;;;;;28.55;14.82;;;;;;;1.56;89.84;98266.94;5220926;28;20398;-78
2020/12/04 03:09:04;;;;;;;31.25;16.02;;;;;;;1.52;89.84;98257.66;5224303;28;20025;-78
2020/12/04 03:11:34;;;;;;;32.40;16.23;;;;;;;1.56;90.57;98259.22;5224669;28;20013;-78
2020/12/04 03:14:05;;;;;;;33.38;16.52;;;;;;;1.56;90.41;98253.25;5223805;28;20074;-78
2020/12/04 03:16:35;;;;;;;32.15;15.63;;;;;;;1.57;90.38;98242.88;5223462;28;20368;-78
2020/12/04 03:19:05;;;;;;;29.38;16.08;;;;;;;1.57;90.62;98236.94;5224034;28;20138;-78
2020/12/04 03:21:36;;;;;;;30.73;16.27;;;;;;;1.57;90.50;98231.78;5223756;28;20077;-78
2020/12/04 03:24:06;;;;;;;33.95;16.08;;;;;;;1.59;90.14;98228.22;5224906;28;20025;-78
2020/12/04 03:26:36;;;;;;;30.48;15.95;;;;;;;1.63;90.17;98241.84;5222793;28;20168;-78
2020/12/04 03:29:06;;;;;;;28.98;15.73;;;;;;;1.64;89.73;98230.63;5223229;28;20024;-78
2020/12/04 03:31:37;;;;;;;32.22;15.90;;;;;;;1.66;90.15;98239.13;5224585;28;20021;-78
2020/12/04 03:34:07;;;;;;;28.02;15.18;;;;;;;1.65;90.22;98238.31;5223745;28;20399;-78
2020/12/04 03:36:37;;;;;;;30.92;16.70;;;;;;;1.63;89.18;98223.81;5223900;28;20025;-79
2020/12/04 03:39:08;;;;;;;28.63;14.98;;;;;;;1.60;89.77;98232.47;5224219;28;20419;-78
2020/12/04 03:41:38;;;;;;;30.63;15.82;;;;;;;1.66;88.95;98224.53;5223349;28;20037;-78
2020/12/04 03:44:08;;;;;;;31.55;16.20;;;;;;;1.65;89.37;98233.16;5223963;28;20025;-78
2020/12/04 03:46:39;;;;;;;31.83;16.40;;;;;;;1.66;90.03;98229.69;5224288;28;20372;-78
2020/12/04 03:49:13;;;;;;;34.15;17.55;;;;;;;1.68;89.39;98233.03;5222832;28;20032;-78
2020/12/04 03:51:44;;;;;;;32.70;15.57;;;;;;;1.67;89.86;98235.66;5223447;28;20514;-78
2020/12/04 03:54:14;;;;;;;32.10;16.45;;;;;;;1.67;89.48;98223.66;5222485;28;20060;-79
2020/12/04 03:56:45;;;;;;;33.60;17.00;;;;;;;1.63;89.93;98214.38;5222674;28;20021;-78
2020/12/04 03:59:15;;;;;;;34.28;17.20;;;;;;;1.70;89.61;98223.53;5223215;28;20032;-79
2020/12/04 04:01:45;;;;;;;34.55;17.98;;;;;;;1.72;89.65;98219.16;5222162;28;20020;-78
2020/12/04 04:04:16;;;;;;;31.67;15.57;;;;;;;1.69;89.36;98218.44;5223558;28;20106;-79
2020/12/04 04:06:46;;;;;;;34.42;17.73;;;;;;;1.71;89.05;98214.91;5219801;28;20098;-79
2020/12/04 04:09:16;;;;;;;31.92;17.67;;;;;;;1.67;89.70;98208.22;5223215;28;20469;-78
2020/12/04 04:11:46;;;;;;;34.95;18.23;;;;;;;1.70;89.34;98204.66;5223510;28;20021;-78
2020/12/04 04:14:17;;;;;;;31.52;16.73;;;;;;;1.74;88.90;98190.81;5222369;28;20021;-78
2020/12/04 04:16:47;;;;;;;33.08;17.95;;;;;;;1.69;88.80;98202.97;5222020;28;20084;-78
2020/12/04 04:19:17;;;;;;;34.03;17.80;;;;;;;1.83;88.63;98193.84;5223074;28;20032;-77
2020/12/04 04:21:47;;;;;;;33.67;18.05;;;;;;;1.83;89.33;98186.13;5222360;28;20056;-78
2020/12/04 04:24:18;;;;;;;34.22;18.30;;;;;;;1.81;88.53;98183.59;5221752;28;20055;-78
2020/12/04 04:26:51;;;;;;;33.97;18.75;;;;;;;1.80;88.52;98184.50;5223475;28;20013;-78
2020/12/04 04:29:21;;;;;;;35.45;18.63;;;;;;;1.76;88.75;98178.72;5222697;28;20025;-78
2020/12/04 04:31:51;;;;;;;35.30;17.92;;;;;;;1.77;88.49;98180.38;5222568;28;20029;-78
2020/12/04 04:34:22;;;;;;;35.42;18.60;;;;;;;1.82;88.57;98184.47;5225849;28;20029;-79
2020/12/04 04:36:52;;;;;;;34.53;18.73;;;;;;;1.78;88.19;98182.88;5224242;28;20616;-78
2020/12/04 04:39:22;;;;;;;35.10;18.85;;;;;;;1.82;87.63;98179.31;5225191;28;20044;-78
2020/12/04 04:41:57;;;;;;;37.60;18.67;;;;;;;1.85;87.34;98179.19;5228582;28;20037;-79
2020/12/04 04:44:27;;;;;;;36.95;19.55;;;;;;;1.85;88.50;98181.75;5230533;28;20032;-79
2020/12/04 04:47:04;;;;;;;33.67;17.63;;;;;;;1.78;87.85;98177.72;5230259;28;20048;-78
2020/12/04 04:49:49;;;;;;;33.05;17.88;;;;;;;1.72;87.81;98193.41;5227532;28;20028;-78
2020/12/04 04:52:19;;;;;;;35.70;17.55;;;;;;;1.72;87.36;98177.16;5228267;28;20032;-78
2020/12/04 04:54:50;;;;;;;35.75;18.92;;;;;;;1.80;87.65;98186.25;5229312;28;20047;-78
2020/12/04 04:57:22;;;;;;;32.20;16.88;;;;;;;1.74;87.30;98180.50;5230040;28;20077;-79
2020/12/04 04:59:54;;;;;;;38.15;19.83;;;;;;;1.76;87.39;98182.09;5231002;28;20112;-77
2020/12/04 05:02:24;;;;;;;37.10;19.42;;;;;;;1.75;87.08;98183.00;5230744;28;20029;-79
2020/12/04 05:04:56;;;;;;;33.53;18.30;;;;;;;1.79;86.63;98189.72;5230724;28;20032;-79
2020/12/04 05:07:28;;;;;;;38.75;19.38;;;;;;;1.79;86.84;98180.25;5230343;28;20028;-78
2020/12/04 05:10:15;;;;;;;35.28;18.45;;;;;;;1.83;86.99;98186.94;5230593;28;20021;-80
2020/12/04 05:12:59;;;;;;;34.75;17.55;;;;;;;1.75;86.83;98185.56;5232015;28;20048;-79
2020/12/04 05:15:31;;;;;;;36.58;18.25;;;;;;;1.69;87.28;98182.41;5232380;28;20025;-79
2020/12/04 05:18:06;;;;;;;36.95;18.63;;;;;;;1.70;87.15;98179.78;5231347;28;20024;-78
2020/12/04 05:20:38;;;;;;;36.65;18.50;;;;;;;1.68;87.04;98181.56;5232485;28;20028;-78
2020/12/04 05:23:09;;;;;;;36.35;18.73;;;;;;;1.74;87.18;98180.50;5230151;28;20071;-77
2020/12/04 05:25:44;;;;;;;35.45;17.92;;;;;;;1.65;86.94;98175.69;5232152;28;20028;-78
2020/12/04 05:28:17;;;;;;;34.28;18.73;;;;;;;1.71;87.68;98176.31;5230620;28;20035;-77
2020/12/04 05:30:51;;;;;;;37.67;17.88;;;;;;;1.72;86.86;98166.84;5231831;28;20108;-79
2020/12/04 05:33:27;;;;;;;33.90;18.05;;;;;;;1.75;86.66;98180.44;5231727;28;20012;-80
2020/12/04 05:35:58;;;;;;;35.25;19.25;;;;;;;1.73;86.05;98194.28;5229723;28;20040;-80
2020/12/04 05:38:28;;;;;;;33.05;18.13;;;;;;;1.80;86.45;98181.94;5230519;28;20036;-80
2020/12/04 05:41:09;;;;;;;34.95;18.25;;;;;;;1.79;86.00;98189.72;5231224;28;20033;-79
2020/12/04 05:43:40;;;;;;;36.17;18.67;;;;;;;1.78;86.00;98193.16;5230915;28;20049;-79
2020/12/04 05:46:17;;;;;;;31.80;17.30;;;;;;;1.78;86.27;98193.16;5231608;28;20059;-80
2020/12/04 05:49:10;;;;;;;38.33;19.65;;;;;;;1.71;86.31;98178.88;5227750;23;20045;-91
2020/12/04 05:51:41;;;;;;;39.72;18.10;;;;;;;1.65;86.17;98183.41;5207903;28;20025;-91
2020/12/04 05:54:11;;;;;;;35.33;18.52;;;;;;;1.61;86.35;98190.41;5209271;28;20517;-91
2020/12/04 05:56:46;;;;;;;35.22;17.35;;;;;;;1.57;86.97;98183.72;5208256;28;20104;-90
2020/12/04 05:59:22;;;;;;;34.08;15.73;;;;;;;1.51;87.45;98181.38;5206299;28;20633;-91
2020/12/04 06:01:53;;;;;;;39.00;19.50;;;;;;;1.45;87.24;98179.06;5208170;28;20079;-91
2020/12/04 06:04:35;;;;;;;35.28;18.05;;;;;;;1.39;87.59;98171.53;5199773;28;20022;-91
2020/12/04 06:07:09;;;;;;;39.47;19.45;;;;;;;1.40;87.82;98169.81;5186960;28;20025;-91
2020/12/04 06:09:42;;;;;;;40.47;19.45;;;;;;;1.39;88.11;98165.56;5186994;28;20030;-91
2020/12/04 06:12:16;;;;;;;35.45;18.20;;;;;;;1.37;87.87;98168.19;5188580;28;20588;-91
2020/12/04 06:14:47;;;;;;;34.72;18.80;;;;;;;1.36;88.30;98175.97;5188006;28;20030;-89
2020/12/04 06:17:17;;;;;;;36.30;18.92;;;;;;;1.37;87.73;98170.75;5196324;28;20576;-90
2020/12/04 06:19:48;;;;;;;36.53;19.23;;;;;;;1.33;88.35;98166.66;5203682;28;20032;-89
2020/12/04 06:22:19;;;;;;;37.60;18.73;;;;;;;1.34;88.13;98167.47;5211564;28;20114;-90
2020/12/04 06:25:13;;;;;;;37.05;18.83;;;;;;;1.35;87.86;98172.56;5200314;28;20025;-89
2020/12/04 06:27:52;;;;;;;36.75;19.10;;;;;;;1.39;88.62;98174.13;5211958;28;20033;-90
2020/12/04 06:30:29;;;;;;;35.45;17.98;;;;;;;1.36;88.33;98171.66;5206969;28;20044;-91
2020/12/04 06:33:04;;;;;;;37.60;18.42;;;;;;;1.42;88.05;98176.56;5213509;28;20041;-90
2020/12/04 06:35:50;;;;;;;38.25;19.35;;;;;;;1.46;88.41;98180.72;5208962;28;20037;-90
2020/12/04 06:38:40;;;;;;;34.63;18.92;;;;;;;1.45;88.21;98189.34;5200095;28;20353;-91
2020/12/04 06:41:37;;;;;;;36.20;18.60;;;;;;;1.51;88.25;98178.81;5200356;28;20034;-90
2020/12/04 06:44:20;;;;;;;33.15;16.83;;;;;;;1.48;87.77;98178.94;5200372;28;20165;-90
2020/12/04 06:47:16;;;;;;;34.22;16.50;;;;;;;1.51;88.41;98178.81;5200347;28;20021;-92
2020/12/04 06:50:01;;;;;;;33.20;17.08;;;;;;;1.52;87.60;98179.63;5203599;28;20100;-92
2020/12/04 06:56:15;;;;;;;33.47;17.42;;;;;;;1.55;88.09;98185.50;5204849;28;20038;-90
2020/12/04 06:58:48;;;;;;;31.83;16.33;;;;;;;1.55;87.73;98190.66;5200649;28;20036;-90
2020/12/04 07:01:19;;;;;;;32.47;17.48;;;;;;;1.52;87.65;98190.78;5199053;28;20029;-90
2020/12/04 07:03:55;;;;;;;34.40;17.63;;;;;;;1.60;87.51;98195.63;5201641;28;20029;-91
2020/12/04 07:09:25;;;;;;;34.92;17.00;;;;;;;1.56;88.16;98200.03;5203754;28;20022;-90
2020/12/04 07:12:00;;;;;;;30.33;15.85;;;;;;;1.61;87.81;98198.13;5201414;28;20483;-90
2020/12/04 07:14:45;;;;;;;36.80;18.45;;;;;;;1.61;88.32;98200.69;5203557;28;20026;-89
2020/12/04 07:17:18;;;;;;;36.33;17.80;;;;;;;1.65;88.43;98202.28;5201563;28;20022;-90
2020/12/04 07:19:49;;;;;;;34.65;18.20;;;;;;;1.53;87.99;98201.88;5205921;28;20030;-90
2020/12/04 07:22:21;;;;;;;35.33;17.63;;;;;;;1.47;88.17;98194.41;5205336;28;20276;-90
2020/12/04 07:24:54;;;;;;;36.08;18.52;;;;;;;1.40;89.35;98205.84;5203979;28;20030;-90
2020/12/04 07:27:27;;;;;;;35.15;18.52;;;;;;;1.34;89.85;98199.19;5215960;28;20017;-90
2020/12/04 07:29:58;;;;;;;41.53;19.38;;;;;;;1.25;90.52;98201.25;5217544;28;20025;-90
2020/12/04 07:32:28;;;;;;;35.22;17.75;;;;;;;1.31;91.39;98206.16;5213708;28;20021;-91
2020/12/04 07:37:39;;;;;;;31.65;16.92;;;;;;;1.46;91.30;98205.59;5231175;28;20327;-78
2020/12/04 07:40:10;;;;;;;33.75;15.93;;;;;;;1.55;91.56;98194.97;5232914;28;20029;-77
2020/12/04 07:42:40;;;;;;;32.83;17.13;;;;;;;1.60;91.03;98198.22;5234249;28;20040;-78
2020/12/04 07:45:17;;;;;;;33.35;16.85;;;;;;;1.64;91.11;98195.47;5234140;28;20029;-78
2020/12/04 07:47:48;;;;;;;34.00;17.33;;;;;;;1.63;91.82;98196.38;5233626;28;20112;-77
2020/12/04 07:50:18;;;;;;;30.08;16.27;;;;;;;1.72;92.31;98197.75;5232464;28;20064;-78
2020/12/04 07:52:50;;;;;;;31.88;16.42;;;;;;;1.78;91.63;98196.59;5234354;28;20082;-76
2020/12/04 07:55:23;;;;;;;34.80;17.48;;;;;;;1.71;92.77;98190.94;5232317;28;20021;-78
2020/12/04 07:58:05;;;;;;;35.90;17.33;;;;;;;1.67;93.06;98195.34;5233474;28;20047;-77
2020/12/04 08:00:35;;;;;;;33.20;16.90;;;;;;;1.68;93.43;98194.44;5233537;28;20544;-78
2020/12/04 08:03:11;;;;;;;32.17;16.92;;;;;;;1.76;93.33;98192.41;5234040;28;20025;-78
2020/12/04 08:05:41;;;;;;;33.58;16.92;;;;;;;1.69;94.06;98196.13;5233307;28;20028;-79
2020/12/04 08:08:18;;;;;;;29.10;16.52;;;;;;;1.68;93.09;98207.31;5234666;28;20084;-77
2020/12/04 08:10:49;;;;;;;31.52;17.10;;;;;;;1.68;93.38;98191.88;5234129;28;20071;-79
2020/12/04 08:13:20;;;;;;;29.88;15.88;;;;;;;1.75;93.48;98193.28;5232086;28;20033;-78
2020/12/04 08:15:50;;;;;;;33.03;16.40;;;;;;;1.83;93.29;98196.44;5231078;28;20028;-77
2020/12/04 08:18:22;;;;;;;34.42;15.48;;;;;;;1.95;92.98;98195.94;5232691;28;20025;-77
2020/12/04 08:21:03;;;;;;;29.35;15.45;;;;;;;2.11;92.18;98199.56;5232416;28;20070;-77
2020/12/04 08:23:34;;;;;;;29.15;14.88;;;;;;;2.25;91.23;98205.88;5233444;28;20024;-77
2020/12/04 08:26:15;;;;;;;30.95;15.82;;;;;;;2.24;91.88;98211.91;5233022;28;20044;-76
2020/12/04 08:28:56;;;;;;;28.95;15.13;;;;;;;2.23;91.97;98215.41;5234867;28;20016;-78
2020/12/04 08:31:26;;;;;;;29.88;15.25;;;;;;;2.22;91.29;98213.72;5234067;28;20023;-78
2020/12/04 08:33:56;;;;;;;31.02;15.82;;;;;;;2.25;91.72;98217.88;5233878;28;20103;-75
2020/12/04 08:36:26;;;;;;;28.58;15.55;;;;;;;2.20;91.14;98217.25;5233849;28;20033;-78
2020/12/04 08:38:57;;;;;;;28.60;16.05;;;;;;;2.25;90.95;98223.03;5233382;28;20112;-77
2020/12/04 08:41:37;;;;;;;33.65;16.05;;;;;;;2.30;90.36;98218.56;5234844;28;20029;-78
2020/12/04 08:44:09;;;;;;;31.73;15.50;;;;;;;2.24;90.19;98223.94;5233721;28;20084;-78
2020/12/04 08:46:40;;;;;;;26.52;14.60;;;;;;;2.32;89.92;98227.06;5232667;28;20095;-76
2020/12/04 08:49:10;;;;;;;30.60;15.55;;;;;;;2.29;89.65;98229.75;5234636;28;20021;-77
2020/12/04 08:51:47;;;;;;;28.75;14.73;;;;;;;2.30;89.80;98239.19;5233772;28;20025;-77
2020/12/04 08:54:17;;;;;;;32.10;15.40;;;;;;;2.27;89.82;98234.13;5233198;28;20040;-79
2020/12/04 08:56:52;;;;;;;27.23;14.85;;;;;;;2.37;89.21;98236.25;5233714;28;20017;-79
2020/12/04 08:59:23;;;;;;;30.77;14.80;;;;;;;2.41;88.96;98229.25;5233866;28;20102;-79
2020/12/04 09:01:54;;;;;;;27.02;14.70;;;;;;;2.45;89.34;98231.66;5235243;28;20027;-79
2020/12/04 09:04:24;;;;;;;27.75;14.35;;;;;;;2.44;88.87;98234.28;5234146;28;20021;-78
2020/12/04 09:06:54;;;;;;;28.92;14.70;;;;;;;2.42;89.47;98230.94;5232072;28;20082;-79
2020/12/04 09:09:26;;;;;;;30.13;15.15;;;;;;;2.37;88.68;98243.16;5231855;28;20612;-78
2020/12/04 09:11:56;;;;;;;29.33;14.77;;;;;;;2.36;88.28;98238.91;5232126;28;20096;-79
2020/12/04 09:14:27;;;;;;;28.88;15.65;;;;;;;2.31;89.77;98241.66;5232644;28;20067;-78
2020/12/04 09:16:57;;;;;;;28.05;14.80;;;;;;;2.33;89.36;98244.19;5230539;28;20029;-78
2020/12/04 09:19:27;;;;;;;30.10;15.75;;;;;;;2.31;89.52;98246.00;5232304;28;20021;-77
2020/12/04 09:21:58;;;;;;;28.83;15.23;;;;;;;2.37;89.27;98254.28;5231529;28;20032;-79
2020/12/04 09:24:28;;;;;;;29.63;16.40;;;;;;;2.34;89.47;98245.88;5230680;28;20033;-77
2020/12/04 09:26:58;;;;;;;30.88;15.18;;;;;;;2.36;88.58;98251.81;5230442;28;20031;-79
2020/12/04 09:29:29;;;;;;;28.17;15.43;;;;;;;2.37;89.86;98256.06;5235278;28;20021;-79
2020/12/04 09:32:05;;;;;;;30.90;16.02;;;;;;;2.34;90.01;98262.16;5234950;28;20017;-79
2020/12/04 09:34:36;;;;;;;30.05;16.00;;;;;;;2.26;90.34;98260.78;5235277;28;20521;-77
2020/12/04 09:37:24;;;;;;;30.67;16.27;;;;;;;2.20;90.39;98259.28;5234321;28;20071;-77
2020/12/04 09:39:57;;;;;;;31.52;15.98;;;;;;;2.23;90.82;98263.47;5234192;28;20032;-76
2020/12/04 09:42:28;;;;;;;29.75;16.27;;;;;;;2.26;90.60;98269.38;5234596;28;20029;-77
2020/12/04 09:44:58;;;;;;;31.73;15.70;;;;;;;2.24;90.65;98272.88;5235027;28;20036;-77
2020/12/04 09:47:30;;;;;;;34.28;16.98;;;;;;;2.27;90.75;98265.03;5235060;28;20035;-77
2020/12/04 09:50:03;;;;;;;30.63;15.27;;;;;;;2.31;89.52;98258.88;5234935;28;20155;-76
2020/12/04 09:52:34;;;;;;;35.13;17.02;;;;;;;2.36;91.02;98257.78;5234398;28;20441;-78
2020/12/04 09:55:05;;;;;;;29.25;15.30;;;;;;;2.34;89.85;98251.03;5232019;28;20025;-78
2020/12/04 09:57:35;;;;;;;30.77;15.68;;;;;;;2.42;89.87;98254.13;5235156;28;20032;-77
2020/12/04 10:00:07;;;;;;;30.33;15.85;;;;;;;2.45;90.03;98260.00;5230370;28;20037;-78
2020/12/04 10:02:37;;;;;;;26.42;14.82;;;;;;;2.51;90.09;98262.31;5235825;28;20033;-78
2020/12/04 10:05:07;;;;;;;28.13;15.23;;;;;;;2.53;89.66;98257.94;5236015;28;20059;-79
2020/12/04 10:07:37;;;;;;;29.58;15.88;;;;;;;2.55;89.47;98261.31;5235670;28;20056;-79
2020/12/04 10:10:08;;;;;;;32.03;15.88;;;;;;;2.65;89.30;98261.78;5237580;28;20028;-78
2020/12/04 10:12:38;;;;;;;30.75;16.35;;;;;;;2.70;89.70;98259.84;5236817;28;20119;-77
2020/12/04 10:15:08;;;;;;;30.92;15.52;;;;;;;2.72;89.24;98263.19;5235261;28;20039;-79
2020/12/04 10:17:38;;;;;;;28.63;15.85;;;;;;;2.74;89.45;98251.91;5235245;28;20037;-76
2020/12/04 10:20:09;;;;;;;27.05;14.88;;;;;;;2.77;88.71;98245.78;5235870;28;20028;-77
2020/12/04 10:22:39;;;;;;;30.38;15.15;;;;;;;2.80;89.93;98251.66;5234733;28;20059;-77
2020/12/04 10:25:09;;;;;;;29.00;14.90;;;;;;;2.80;90.20;98243.06;5234558;28;20029;-76
2020/12/04 10:27:40;;;;;;;30.98;15.18;;;;;;;2.81;90.23;98247.31;5234705;28;20060;-75
2020/12/04 10:30:10;;;;;;;31.50;15.00;;;;;;;2.81;88.87;98242.16;5234142;28;20029;-76
2020/12/04 10:32:40;;;;;;;33.25;15.30;;;;;;;2.78;89.69;98248.31;5234610;28;20047;-75
2020/12/04 10:35:11;;;;;;;29.58;15.38;;;;;;;2.81;89.71;98243.00;5234511;28;20028;-79
2020/12/04 10:37:41;;;;;;;30.35;16.27;;;;;;;2.79;89.39;98251.69;5233087;28;20025;-78
2020/12/04 10:40:11;;;;;;;27.27;14.38;;;;;;;2.70;89.36;98245.19;5233418;28;20364;-78
2020/12/04 10:42:41;;;;;;;29.35;14.73;;;;;;;2.71;90.18;98246.03;5233150;28;20029;-79
2020/12/04 10:45:12;;;;;;;33.03;16.63;;;;;;;2.67;90.05;98249.66;5233998;28;20514;-77
2020/12/04 10:47:42;;;;;;;30.05;16.00;;;;;;;2.73;90.79;98239.94;5233812;28;20074;-78
2020/12/04 10:50:12;;;;;;;33.17;17.10;;;;;;;2.66;90.41;98232.53;5233512;28;20045;-77
2020/12/04 10:52:43;;;;;;;30.13;15.60;;;;;;;2.65;91.06;98246.31;5233426;28;20032;-76
2020/12/04 10:55:13;;;;;;;33.70;16.70;;;;;;;2.66;91.71;98242.84;5222129;28;20527;-78
2020/12/04 10:57:43;;;;;;;31.70;17.65;;;;;;;2.63;91.89;98242.94;5228779;28;20024;-76
2020/12/04 11:00:14;;;;;;;31.55;16.27;;;;;;;2.75;91.42;98247.59;5229886;28;20514;-78
2020/12/04 11:02:48;;;;;;;29.50;16.13;;;;;;;2.73;92.12;98239.09;5230145;28;20070;-78
2020/12/04 11:05:36;;;;;;;30.42;16.08;;;;;;;2.69;91.75;98242.69;5234356;28;20076;-76
2020/12/04 11:08:07;;;;;;;29.58;16.17;;;;;;;2.65;91.41;98236.00;5228273;28;20075;-79
2020/12/04 11:10:38;;;;;;;32.05;16.48;;;;;;;2.62;91.71;98236.94;5235720;28;20033;-77
2020/12/04 11:13:09;;;;;;;31.13;16.90;;;;;;;2.65;91.70;98229.09;5234144;28;20021;-79
2020/12/04 11:15:39;;;;;;;33.03;16.23;;;;;;;2.61;92.25;98252.47;5233151;28;20028;-77
2020/12/04 11:18:10;;;;;;;30.40;16.10;;;;;;;2.64;92.10;98265.22;5235755;28;20056;-76
2020/12/04 11:20:40;;;;;;;32.95;17.25;;;;;;;2.63;92.41;98263.53;5234305;28;20031;-79
2020/12/04 11:23:10;;;;;;;31.33;16.58;;;;;;;2.70;92.82;98258.09;5235717;28;20060;-78
2020/12/04 11:25:40;;;;;;;31.30;16.00;;;;;;;2.79;91.59;98259.44;5233551;28;20032;-78
2020/12/04 11:28:11;;;;;;;27.63;15.65;;;;;;;2.85;90.68;98265.19;5230659;28;20173;-77
2020/12/04 11:30:41;;;;;;;28.83;15.82;;;;;;;2.82;90.81;98265.31;5228960;28;20047;-77
2020/12/04 11:33:11;;;;;;;30.83;15.18;;;;;;;2.91;90.20;98269.25;5230576;28;20032;-78
2020/12/04 11:35:42;;;;;;;27.70;15.65;;;;;;;2.97;90.14;98263.81;5230450;28;20044;-77
2020/12/04 11:38:14;;;;;;;25.60;14.32;;;;;;;3.07;89.32;98260.81;5229229;28;20032;-78
2020/12/04 11:40:44;;;;;;;30.00;15.52;;;;;;;3.11;89.95;98261.50;5231876;28;20086;-77
2020/12/04 11:43:14;;;;;;;27.45;15.15;;;;;;;3.22;89.10;98267.03;5232128;28;20029;-77
2020/12/04 11:45:45;;;;;;;28.75;14.63;;;;;;;3.20;90.29;98263.69;5233174;28;20025;-77
2020/12/04 11:48:15;;;;;;;29.85;15.20;;;;;;;3.28;89.77;98269.34;5235833;22;20128;-82
2020/12/04 11:50:45;;;;;;;29.73;14.63;;;;;;;3.31;89.92;98274.38;5203381;28;20084;-81
2020/12/04 11:53:16;;;;;;;27.75;14.77;;;;;;;3.29;89.11;98271.88;5199517;28;20034;-82
2020/12/04 11:55:46;;;;;;;28.25;15.80;;;;;;;3.40;89.87;98264.50;5183442;28;20056;-82